createdAt,value
2022-11-18T00:00:10.460Z,4.2
2022-11-18T00:05:48.249Z,4.1
2022-11-18T00:11:10.432Z,4.2
2022-11-18T00:16:48.048Z,4.1
2022-11-18T00:22:29.827Z,4.1
2022-11-18T00:28:07.883Z,4.1
2022-11-18T00:33:44.182Z,4
2022-11-18T00:39:21.852Z,4.1
2022-11-18T00:44:44.172Z,4.1
2022-11-18T00:50:22.050Z,4.1
2022-11-18T00:55:44.688Z,4.1
2022-11-18T01:01:22.954Z,4.1
2022-11-18T01:06:44.836Z,4
2022-11-18T01:12:08.038Z,4
2022-11-18T01:17:30.585Z,3.9
2022-11-18T01:22:52.383Z,4
2022-11-18T01:28:16.490Z,3.9
2022-11-18T01:34:28.952Z,4
2022-11-18T01:39:51.133Z,4.1
2022-11-18T01:45:28.659Z,4.1
2022-11-18T01:50:50.850Z,4.2
2022-11-18T01:56:02.604Z,4.3
2022-11-18T02:01:24.635Z,4.3
2022-11-18T02:07:04.361Z,4.3
2022-11-18T02:12:43.610Z,4.4
2022-11-18T02:18:21.254Z,4.4
2022-11-18T02:23:58.532Z,4.5
2022-11-18T02:29:20.241Z,4.6
2022-11-18T02:34:43.003Z,4.7
2022-11-18T02:40:04.229Z,4.7
2022-11-18T02:45:41.722Z,4.7
2022-11-18T02:51:20.110Z,4.8
2022-11-18T02:56:57.588Z,4.8
2022-11-18T03:02:35.255Z,4.9
2022-11-18T03:08:13.429Z,4.9
2022-11-18T03:13:19.747Z,4.9
2022-11-18T03:18:41.843Z,5
2022-11-18T03:24:04.363Z,5
2022-11-18T03:29:26.304Z,5
2022-11-18T03:34:33.524Z,5
2022-11-18T03:40:20.778Z,5.1
2022-11-18T03:46:03.927Z,5
2022-11-18T03:51:41.603Z,5.1
2022-11-18T03:57:09.635Z,5.1
2022-11-18T04:02:46.979Z,5.1
2022-11-18T04:08:24.428Z,5.1
2022-11-18T04:14:02.763Z,5.1
2022-11-18T04:19:41.055Z,5.2
2022-11-18T04:25:18.643Z,5.2
2022-11-18T04:30:41.045Z,5.2
2022-11-18T04:36:18.040Z,5.3
2022-11-18T04:41:47.406Z,5.3
2022-11-18T04:47:25.738Z,5.3
2022-11-18T04:53:08.483Z,5.3
2022-11-18T04:58:50.855Z,5.3
2022-11-18T05:04:29.265Z,5.4
2022-11-18T05:09:52.047Z,5.4
2022-11-18T05:15:15.502Z,5.4
2022-11-18T05:20:41.484Z,5.4
2022-11-18T05:26:03.928Z,5.5
2022-11-18T05:31:26.183Z,5.5
2022-11-18T05:37:07.395Z,5.6
2022-11-18T05:42:29.511Z,5.6
2022-11-18T05:48:09.256Z,5.7
2022-11-18T05:53:48.273Z,5.8
2022-11-18T05:59:26.212Z,5.9
2022-11-18T06:05:04.856Z,5.9
2022-11-18T06:10:43.832Z,6.1
2022-11-18T06:16:21.102Z,6.2
2022-11-18T06:22:02.635Z,6.3
2022-11-18T06:27:41.146Z,6.4
2022-11-18T06:33:24.659Z,6.7
2022-11-18T06:39:02.858Z,6.9
2022-11-18T06:44:48.060Z,7.3
2022-11-18T06:50:11.481Z,7.6
2022-11-18T06:55:39.371Z,7.9
2022-11-18T07:01:17.952Z,8.2
2022-11-18T07:06:54.716Z,8.5
2022-11-18T07:12:33.027Z,8.8
2022-11-18T07:18:15.354Z,9.2
2022-11-18T07:23:52.641Z,9.5
2022-11-18T07:29:30.969Z,9.9
2022-11-18T07:35:09.655Z,10.5
2022-11-18T07:40:51.572Z,10.9
2022-11-18T07:46:35.516Z,11.5
2022-11-18T07:52:15.832Z,11.8
2022-11-18T07:57:53.726Z,12.1
2022-11-18T08:03:32.591Z,12.4
2022-11-18T08:09:17.340Z,12.9
2022-11-18T08:14:58.586Z,13.5
2022-11-18T08:20:36.201Z,14.1
2022-11-18T08:26:18.798Z,14.4
2022-11-18T08:32:00.369Z,14.9
2022-11-18T08:37:43.792Z,15.4
2022-11-18T08:43:08.706Z,15.8
2022-11-18T08:48:30.828Z,16.1
2022-11-18T08:54:09.277Z,16.8
2022-11-18T08:59:47.023Z,17.5
2022-11-18T09:05:24.048Z,18
2022-11-18T09:11:08.154Z,18.8
2022-11-18T09:18:16.052Z,19.9
2022-11-18T09:24:20.868Z,21.2
2022-11-18T09:30:05.716Z,22.3
2022-11-18T09:35:43.773Z,23.7
2022-11-18T09:41:27.353Z,25.9
2022-11-18T09:47:10.379Z,29
2022-11-18T09:53:30.031Z,33.1
2022-11-18T09:59:08.585Z,35.4
2022-11-18T10:04:46.884Z,39.9
2022-11-18T10:10:25.034Z,46.1
2022-11-18T10:16:07.722Z,55.4
2022-11-18T10:22:16.930Z,47.9
2022-11-18T10:27:59.333Z,42.8
2022-11-18T10:33:21.450Z,47.6
2022-11-18T10:39:12.802Z,53.1
2022-11-18T10:44:51.896Z,47.3
2022-11-18T10:50:14.248Z,44.9
2022-11-18T10:55:59.585Z,53.8
2022-11-18T11:01:43.142Z,45.7
2022-11-18T11:07:23.407Z,40.4
2022-11-18T11:13:11.379Z,40.4
2022-11-18T11:18:50.955Z,40
2022-11-18T11:24:35.669Z,39.7
2022-11-18T11:31:59.891Z,38.4
2022-11-18T11:37:37.850Z,37.2
2022-11-18T11:43:20.568Z,35.8
2022-11-18T11:48:42.931Z,34.6
2022-11-18T11:54:29.493Z,33.1
2022-11-18T11:59:52.635Z,31.6
2022-11-18T12:05:36.942Z,29.9
2022-11-18T12:11:15.891Z,28.4
2022-11-18T12:16:59.006Z,27
2022-11-18T12:22:37.439Z,25.7
2022-11-18T12:28:16.231Z,24.6
2022-11-18T12:33:53.841Z,23.6
2022-11-18T12:39:31.551Z,22.8
2022-11-18T12:45:10.065Z,22.2
2022-11-18T12:50:48.604Z,21.8
2022-11-18T12:56:14.909Z,21.4
2022-11-18T13:01:38.267Z,20.9
2022-11-18T13:07:21.895Z,20.6
2022-11-18T13:13:01.151Z,20.3
2022-11-18T13:18:40.230Z,19.9
2022-11-18T13:24:01.920Z,19.8
2022-11-18T13:29:24.502Z,19.8
2022-11-18T13:35:01.967Z,19.6
2022-11-18T13:40:46.939Z,19.5
2022-11-18T13:46:13.501Z,19.3
2022-11-18T13:51:52.714Z,19.1
2022-11-18T13:57:15.176Z,18.9
2022-11-18T14:08:17.129Z,18.6
2022-11-18T14:13:54.643Z,18.4
2022-11-18T14:19:34.853Z,18.2
2022-11-18T14:25:14.684Z,18
2022-11-18T14:30:52.366Z,17.9
2022-11-18T14:36:15.378Z,17.8
2022-11-18T14:42:56.838Z,17.6
2022-11-18T14:48:04.186Z,17.6
2022-11-18T14:53:42.708Z,17.4
2022-11-18T14:59:29.418Z,17.3
2022-11-18T15:04:58.830Z,17.2
2022-11-18T15:10:21.316Z,17.1
2022-11-18T15:15:29.111Z,16.9
2022-11-18T15:21:06.767Z,16.6
2022-11-18T15:26:44.714Z,16.1
2022-11-18T15:32:23.424Z,15.8
2022-11-18T15:38:06.013Z,15.6
2022-11-18T15:43:25.889Z,15.3
2022-11-18T15:49:04.253Z,15
2022-11-18T15:54:44.304Z,14.8
2022-11-18T16:00:16.759Z,14.6
2022-11-18T16:05:40.195Z,14.4
2022-11-18T16:11:05.035Z,14.2
2022-11-18T16:16:27.397Z,14
2022-11-18T16:22:07.175Z,13.9
2022-11-18T16:27:45.544Z,13.7
2022-11-18T16:33:31.097Z,13.4
2022-11-18T16:39:15.565Z,13.2
2022-11-18T16:45:00.162Z,13.1
2022-11-18T16:50:44.109Z,13.1
2022-11-18T16:56:13.863Z,13
2022-11-18T17:02:17.838Z,12.9
2022-11-18T17:07:56.768Z,13
2022-11-18T17:13:19.420Z,13.1
2022-11-18T17:18:46.072Z,13
2022-11-18T17:24:13.733Z,13.1
2022-11-18T17:29:39.535Z,13.2
2022-11-18T17:35:06.146Z,13.4
2022-11-18T17:40:33.628Z,13.5
2022-11-18T17:45:40.814Z,13.7
2022-11-18T17:51:26.025Z,13.8
2022-11-18T17:57:15.784Z,13.8
2022-11-18T18:02:55.738Z,13.9
2022-11-18T18:08:18.527Z,14.1
2022-11-18T18:13:48.057Z,14.1
2022-11-18T18:19:32.316Z,14.3
2022-11-18T18:25:12.711Z,14.4
2022-11-18T18:30:51.274Z,14.4
2022-11-18T18:36:35.800Z,14.5
2022-11-18T18:41:42.744Z,14.6
2022-11-18T18:46:54.841Z,14.8
2022-11-18T18:52:34.107Z,14.9
2022-11-18T18:58:19.351Z,14.9
2022-11-18T19:03:51.399Z,15
2022-11-18T19:10:42.703Z,15
2022-11-18T19:16:07.734Z,15.1
2022-11-18T19:21:16.467Z,15.1
2022-11-18T19:27:25.141Z,15.1
2022-11-18T19:32:53.527Z,15.1
2022-11-18T19:38:34.065Z,15.2
2022-11-18T19:44:14.557Z,15.3
2022-11-18T19:49:58.689Z,15.3
2022-11-18T19:55:45.358Z,15.3
2022-11-18T20:01:25.484Z,15.3
2022-11-18T20:07:05.252Z,15.2
2022-11-18T20:12:50.162Z,14.8
2022-11-18T20:18:30.905Z,14.3
2022-11-18T20:24:24.804Z,14
2022-11-18T20:29:53.595Z,13.8
2022-11-18T20:35:33.806Z,13.6
2022-11-18T20:40:57.751Z,13.3
2022-11-18T20:46:38.960Z,13.1
2022-11-18T20:51:48.013Z,12.9
2022-11-18T20:56:56.874Z,12.6
2022-11-18T21:02:04.601Z,12.5
2022-11-18T21:07:44.193Z,12.4
2022-11-18T21:13:23.305Z,12.2
2022-11-18T21:19:03.575Z,12.1
2022-11-18T21:24:43.240Z,11.9
2022-11-18T21:30:28.669Z,11.8
2022-11-18T21:36:11.422Z,11.7
2022-11-18T21:41:56.960Z,11.6
2022-11-18T21:48:04.974Z,11.5
2022-11-18T21:53:49.609Z,11.4
2022-11-18T21:59:16.705Z,11.4
2022-11-18T22:04:38.629Z,11.4
2022-11-18T22:10:17.422Z,11.3
2022-11-18T22:15:39.666Z,11.3
2022-11-18T22:21:23.379Z,11.3
2022-11-18T22:27:02.368Z,11.3
2022-11-18T22:32:42.122Z,11.2
2022-11-18T22:38:20.253Z,11.2
2022-11-18T22:44:01.427Z,11.2
2022-11-18T22:49:42.075Z,11.1
2022-11-18T23:03:45.470Z,11.1
2022-11-18T23:10:14.003Z,11.1
2022-11-18T23:15:58.301Z,11.1
2022-11-18T23:21:23.718Z,11.2
2022-11-18T23:26:48.162Z,11.3
2022-11-18T23:32:28.174Z,11.3
2022-11-18T23:38:07.874Z,11.3
2022-11-18T23:43:16.123Z,11.3
2022-11-18T23:48:54.625Z,11.3
2022-11-18T23:54:38.702Z,11.3
